createdAt,value
2022-12-17T00:00:28.403Z,102303.00
2022-12-17T00:01:20.797Z,102306.47
2022-12-17T00:02:11.767Z,102300.31
2022-12-17T00:03:05.380Z,102295.75
2022-12-17T00:04:02.552Z,102296.81
2022-12-17T00:04:57.243Z,102296.81
2022-12-17T00:05:47.926Z,102294.94
2022-12-17T00:06:40.948Z,102296.81
2022-12-17T00:07:31.594Z,102291.47
2022-12-17T00:08:22.388Z,102300.31
2022-12-17T00:09:13.064Z,102303.00
2022-12-17T00:10:03.799Z,102298.69
2022-12-17T00:10:54.860Z,102306.47
2022-12-17T00:11:45.856Z,102300.31
2022-12-17T00:12:45.675Z,102303.25
2022-12-17T00:13:40.895Z,102308.63
2022-12-17T00:14:31.011Z,102302.44
2022-12-17T00:15:22.075Z,102309.41
2022-12-17T00:16:15.015Z,102312.09
2022-12-17T00:17:06.022Z,102309.41
2022-12-17T00:17:56.749Z,102305.94
2022-12-17T00:18:50.691Z,102304.88
2022-12-17T00:19:42.384Z,102302.44
2022-12-17T00:20:33.007Z,102309.41
2022-12-17T00:21:23.639Z,102312.09
2022-12-17T00:22:14.296Z,102303.25
2022-12-17T00:23:07.107Z,102310.22
2022-12-17T00:24:00.870Z,102315.84
2022-12-17T00:24:51.370Z,102311.28
2022-12-17T00:25:44.512Z,102311.28
2022-12-17T00:26:35.301Z,102316.38
2022-12-17T00:27:25.581Z,102312.91
2022-12-17T00:28:17.372Z,102317.19
2022-12-17T00:29:07.893Z,102308.34
2022-12-17T00:29:58.474Z,102312.91
2022-12-17T00:30:48.912Z,102318.81
2022-12-17T00:31:42.070Z,102319.06
2022-12-17T00:32:53.492Z,102318.25
2022-12-17T00:33:50.360Z,102312.91
2022-12-17T00:34:40.832Z,102318.25
2022-12-17T00:35:45.434Z,102320.16
2022-12-17T00:36:42.092Z,102316.66
2022-12-17T00:37:32.545Z,102320.94
2022-12-17T00:38:24.260Z,102320.16
2022-12-17T00:39:14.989Z,102318.25
2022-12-17T00:40:06.689Z,102322.03
2022-12-17T00:40:57.048Z,102320.94
2022-12-17T00:41:51.224Z,102317.47
2022-12-17T00:42:41.922Z,102321.22
2022-12-17T00:43:32.375Z,102327.13
2022-12-17T00:44:22.596Z,102329.00
2022-12-17T00:45:13.074Z,102322.81
2022-12-17T00:46:04.055Z,102326.31
2022-12-17T00:46:56.627Z,102322.81
2022-12-17T00:47:46.837Z,102326.31
2022-12-17T00:48:37.658Z,102320.16
2022-12-17T00:49:29.053Z,102322.03
2022-12-17T00:50:20.681Z,102324.69
2022-12-17T00:51:11.638Z,102329.00
2022-12-17T00:52:02.040Z,102328.19
2022-12-17T00:52:52.743Z,102326.31
2022-12-17T00:53:43.398Z,102332.47
2022-12-17T00:54:34.247Z,102337.03
2022-12-17T00:55:25.087Z,102328.44
2022-12-17T00:56:15.569Z,102333.56
2022-12-17T00:57:06.018Z,102330.06
2022-12-17T00:57:56.645Z,102335.44
2022-12-17T00:59:05.085Z,102333.56
2022-12-17T00:59:55.219Z,102336.22
2022-12-17T01:00:46.993Z,102334.63
2022-12-17T01:01:37.601Z,102335.44
2022-12-17T01:02:29.393Z,102335.44
2022-12-17T01:03:34.559Z,102337.31
2022-12-17T01:04:28.191Z,102342.66
2022-12-17T01:05:18.960Z,102333.00
2022-12-17T01:06:09.363Z,102337.56
2022-12-17T01:07:00.685Z,102340.25
2022-12-17T01:07:51.732Z,102341.84
2022-12-17T01:08:43.824Z,102342.13
2022-12-17T01:09:34.510Z,102338.63
2022-12-17T01:10:28.622Z,102340.25
2022-12-17T01:11:35.184Z,102344.00
2022-12-17T01:12:26.365Z,102349.09
2022-12-17T01:13:17.305Z,102350.16
2022-12-17T01:14:08.034Z,102342.13
2022-12-17T01:14:58.723Z,102350.97
2022-12-17T01:15:49.496Z,102342.94
2022-12-17T01:16:40.119Z,102341.31
2022-12-17T01:17:31.176Z,102333.28
2022-12-17T01:18:22.821Z,102337.56
2022-12-17T01:19:14.283Z,102342.13
2022-12-17T01:20:04.791Z,102337.84
2022-12-17T01:20:55.489Z,102341.31
2022-12-17T01:21:49.126Z,102342.13
2022-12-17T01:22:42.089Z,102339.44
2022-12-17T01:23:46.656Z,102345.63
2022-12-17T01:24:39.850Z,102339.72
2022-12-17T01:25:35.137Z,102341.31
2022-12-17T01:26:25.920Z,102344.00
2022-12-17T01:27:16.549Z,102349.63
2022-12-17T01:28:08.540Z,102339.72
2022-12-17T01:29:02.936Z,102350.69
2022-12-17T01:29:56.543Z,102348.81
2022-12-17T01:30:47.404Z,102346.16
2022-12-17T01:31:38.352Z,102340.78
2022-12-17T01:32:29.062Z,102341.59
2022-12-17T01:33:25.930Z,102343.19
2022-12-17T01:34:16.803Z,102343.47
2022-12-17T01:35:07.497Z,102342.66
2022-12-17T01:36:01.209Z,102342.38
2022-12-17T01:36:51.941Z,102339.72
2022-12-17T01:37:42.520Z,102340.78
2022-12-17T01:38:35.575Z,102342.66
2022-12-17T01:39:28.394Z,102348.03
2022-12-17T01:40:18.968Z,102348.81
2022-12-17T01:41:12.266Z,102349.91
2022-12-17T01:42:21.605Z,102349.38
2022-12-17T01:43:12.521Z,102352.06
2022-12-17T01:44:04.478Z,102355.81
2022-12-17T01:45:00.767Z,102351.53
2022-12-17T01:46:19.090Z,102350.97
2022-12-17T01:47:12.545Z,102349.38
2022-12-17T01:48:06.002Z,102346.69
2022-12-17T01:49:00.610Z,102348.56
2022-12-17T01:49:51.315Z,102353.94
2022-12-17T01:50:45.221Z,102357.41
2022-12-17T01:51:37.012Z,102355.53
2022-12-17T01:52:29.094Z,102368.13
2022-12-17T01:53:23.119Z,102359.03
2022-12-17T01:54:16.524Z,102365.47
2022-12-17T01:55:07.581Z,102358.47
2022-12-17T01:55:58.163Z,102362.78
2022-12-17T01:56:50.018Z,102361.16
2022-12-17T01:57:42.153Z,102361.97
2022-12-17T01:58:37.081Z,102365.47
2022-12-17T01:59:29.260Z,102366.25
2022-12-17T02:00:27.341Z,102360.09
2022-12-17T02:01:17.743Z,102365.47
2022-12-17T02:02:11.220Z,102362.78
2022-12-17T02:03:02.145Z,102365.47
2022-12-17T02:03:55.448Z,102358.22
2022-12-17T02:04:46.734Z,102365.47
2022-12-17T02:05:44.130Z,102361.97
2022-12-17T02:06:45.155Z,102361.72
2022-12-17T02:07:41.475Z,102360.09
2022-12-17T02:08:55.023Z,102357.41
2022-12-17T02:10:10.598Z,102362.78
2022-12-17T02:11:21.736Z,102364.38
2022-12-17T02:12:36.924Z,102363.59
2022-12-17T02:13:35.159Z,102363.59
2022-12-17T02:14:54.638Z,102363.84
2022-12-17T02:16:09.173Z,102373.50
2022-12-17T02:17:07.726Z,102377.25
2022-12-17T02:18:02.824Z,102378.31
2022-12-17T02:19:02.848Z,102377.50
2022-12-17T02:20:02.164Z,102375.63
2022-12-17T02:21:14.346Z,102377.25
2022-12-17T02:22:14.029Z,102369.47
2022-12-17T02:23:39.635Z,102366.78
2022-12-17T02:24:46.399Z,102370.28
2022-12-17T02:26:04.384Z,102372.16
2022-12-17T02:27:04.948Z,102372.97
2022-12-17T02:27:58.936Z,102369.72
2022-12-17T02:28:51.690Z,102371.59
2022-12-17T02:29:56.634Z,102377.78
2022-12-17T02:30:49.324Z,102376.16
2022-12-17T02:31:41.367Z,102370.81
2022-12-17T02:32:40.199Z,102372.41
2022-12-17T02:33:33.428Z,102377.22
2022-12-17T02:34:26.623Z,102378.03
2022-12-17T02:35:22.242Z,102374.56
2022-12-17T02:36:40.983Z,102371.88
2022-12-17T02:37:33.680Z,102378.31
2022-12-17T02:38:44.990Z,102374.00
2022-12-17T02:39:35.661Z,102375.88
2022-12-17T02:40:31.928Z,102376.69
2022-12-17T02:41:33.302Z,102373.47
2022-12-17T02:42:24.530Z,102374.28
2022-12-17T02:43:18.808Z,102381.50
2022-12-17T02:44:11.339Z,102384.19
2022-12-17T02:45:04.584Z,102377.22
2022-12-17T02:46:02.272Z,102377.22
2022-12-17T02:46:55.417Z,102383.38
2022-12-17T02:47:47.199Z,102387.69
2022-12-17T02:48:42.081Z,102384.19
2022-12-17T02:49:35.122Z,102389.56
2022-12-17T02:50:27.309Z,102387.13
2022-12-17T02:51:21.513Z,102387.94
2022-12-17T02:52:14.009Z,102387.94
2022-12-17T02:53:07.603Z,102387.94
2022-12-17T02:54:09.261Z,102386.06
2022-12-17T02:55:05.832Z,102385.00
2022-12-17T02:55:58.628Z,102389.56
2022-12-17T02:56:55.629Z,102389.56
2022-12-17T02:57:49.583Z,102382.59
2022-12-17T02:58:46.454Z,102387.94
2022-12-17T02:59:38.524Z,102389.81
2022-12-17T03:00:32.697Z,102386.31
2022-12-17T03:01:24.520Z,102386.06
2022-12-17T03:02:15.752Z,102386.06
2022-12-17T03:03:08.238Z,102387.16
2022-12-17T03:05:35.509Z,102388.22
2022-12-17T03:06:23.469Z,102388.22
2022-12-17T03:07:14.257Z,102391.16
2022-12-17T03:08:07.841Z,102387.69
2022-12-17T03:09:01.168Z,102390.63
2022-12-17T03:09:52.015Z,102382.56
2022-12-17T03:11:03.043Z,102387.94
2022-12-17T03:11:58.847Z,102387.13
2022-12-17T03:12:49.380Z,102386.31
2022-12-17T03:13:48.352Z,102395.16
2022-12-17T03:14:43.616Z,102390.88
2022-12-17T03:15:38.954Z,102400.53
2022-12-17T03:16:37.267Z,102404.00
2022-12-17T03:17:33.977Z,102396.25
2022-12-17T03:18:24.465Z,102401.59
2022-12-17T03:19:15.935Z,102403.47
2022-12-17T03:20:06.824Z,102406.16
2022-12-17T03:20:57.331Z,102404.28
2022-12-17T03:21:49.664Z,102403.72
2022-12-17T03:22:51.527Z,102410.97
2022-12-17T03:23:48.570Z,102407.22
2022-12-17T03:24:43.207Z,102406.16
2022-12-17T03:25:35.169Z,102409.63
2022-12-17T03:26:35.072Z,102406.97
2022-12-17T03:27:25.957Z,102418.47
2022-12-17T03:28:24.294Z,102405.09
2022-12-17T03:29:14.971Z,102407.75
2022-12-17T03:30:07.964Z,102410.44
2022-12-17T03:30:58.662Z,102406.69
2022-12-17T03:31:49.427Z,102407.50
2022-12-17T03:32:41.319Z,102408.31
2022-12-17T03:33:32.160Z,102404.00
2022-12-17T03:34:27.399Z,102412.06
2022-12-17T03:35:17.825Z,102411.25
2022-12-17T03:36:12.408Z,102406.97
2022-12-17T03:37:03.201Z,102404.28
2022-12-17T03:37:53.886Z,102408.56
2022-12-17T03:38:49.308Z,102404.28
2022-12-17T03:39:42.158Z,102405.88
2022-12-17T03:40:32.558Z,102401.59
2022-12-17T03:41:23.248Z,102405.88
2022-12-17T03:42:13.772Z,102404.28
2022-12-17T03:43:07.182Z,102401.84
2022-12-17T03:44:00.626Z,102398.63
2022-12-17T03:44:51.600Z,102393.28
2022-12-17T03:45:42.424Z,102398.63
2022-12-17T03:46:33.085Z,102394.34
2022-12-17T03:47:27.662Z,102396.22
2022-12-17T03:48:30.671Z,102395.41
2022-12-17T03:49:21.490Z,102393.53
2022-12-17T03:50:14.568Z,102399.97
2022-12-17T03:51:11.580Z,102405.59
2022-12-17T03:52:02.192Z,102407.19
2022-12-17T03:52:52.871Z,102404.78
2022-12-17T03:53:43.657Z,102408.53
2022-12-17T03:54:37.200Z,102406.13
2022-12-17T03:55:30.353Z,102409.06
2022-12-17T03:56:21.114Z,102403.72
2022-12-17T03:57:16.071Z,102409.06
2022-12-17T03:58:07.585Z,102402.91
2022-12-17T03:59:03.499Z,102402.91
2022-12-17T03:59:58.779Z,102405.84
2022-12-17T04:00:51.940Z,102401.81
2022-12-17T04:01:46.952Z,102396.72
2022-12-17T04:02:38.809Z,102398.34
2022-12-17T04:03:31.113Z,102400.22
2022-12-17T04:04:21.523Z,102402.88
2022-12-17T04:05:18.195Z,102403.16
2022-12-17T04:06:11.753Z,102403.41
2022-12-17T04:07:02.652Z,102400.72
2022-12-17T04:07:54.936Z,102406.91
2022-12-17T04:08:49.749Z,102403.41
2022-12-17T04:09:43.101Z,102412.50
2022-12-17T04:10:33.738Z,102409.84
2022-12-17T04:11:27.175Z,102405.53
2022-12-17T04:12:20.463Z,102404.75
2022-12-17T04:13:11.294Z,102409.28
2022-12-17T04:14:02.228Z,102411.16
2022-12-17T04:15:16.337Z,102402.31
2022-12-17T04:16:08.485Z,102401.50
2022-12-17T04:16:59.302Z,102405.00
2022-12-17T04:17:52.550Z,102399.91
2022-12-17T04:18:55.068Z,102407.13
2022-12-17T04:19:48.297Z,102402.84
2022-12-17T04:20:39.106Z,102402.59
2022-12-17T04:21:29.985Z,102407.13
2022-12-17T04:22:20.888Z,102407.94
2022-12-17T04:23:12.552Z,102405.53
2022-12-17T04:24:05.757Z,102409.00
2022-12-17T04:24:56.831Z,102405.53
2022-12-17T04:25:50.507Z,102417.03
2022-12-17T04:26:44.446Z,102417.84
2022-12-17T04:27:38.024Z,102415.44
2022-12-17T04:28:31.360Z,102413.03
2022-12-17T04:29:22.140Z,102418.66
2022-12-17T04:30:15.348Z,102421.06
2022-12-17T04:31:08.865Z,102421.06
2022-12-17T04:32:01.993Z,102428.00
2022-12-17T04:32:52.894Z,102432.59
2022-12-17T04:33:46.444Z,102429.91
2022-12-17T04:34:37.125Z,102437.16
2022-12-17T04:35:31.909Z,102434.72
2022-12-17T04:36:24.248Z,102435.53
2022-12-17T04:37:17.791Z,102439.81
2022-12-17T04:38:08.952Z,102448.66
2022-12-17T04:39:01.600Z,102447.56
2022-12-17T04:39:54.291Z,102443.31
2022-12-17T04:41:04.814Z,102448.38
2022-12-17T04:41:58.667Z,102453.72
2022-12-17T04:42:52.983Z,102450.25
2022-12-17T04:43:44.537Z,102457.47
2022-12-17T04:44:40.494Z,102455.59
2022-12-17T04:45:32.309Z,102460.16
2022-12-17T04:46:25.324Z,102458.28
2022-12-17T04:47:16.039Z,102454.53
2022-12-17T04:48:08.113Z,102463.38
2022-12-17T04:49:02.133Z,102459.91
2022-12-17T04:49:57.265Z,102459.91
2022-12-17T04:50:48.239Z,102459.09
2022-12-17T04:51:41.031Z,102459.09
2022-12-17T04:52:33.222Z,102459.91
2022-12-17T04:53:28.729Z,102450.00
2022-12-17T04:54:22.304Z,102459.91
2022-12-17T04:55:16.606Z,102455.34
2022-12-17T04:56:09.046Z,102459.09
2022-12-17T04:56:59.571Z,102460.69
2022-12-17T04:57:52.848Z,102462.56
2022-12-17T04:58:49.475Z,102459.91
2022-12-17T04:59:43.491Z,102460.69
2022-12-17T05:00:34.262Z,102461.50
2022-12-17T05:01:28.983Z,102461.50
2022-12-17T05:02:20.882Z,102455.91
2022-12-17T05:03:11.936Z,102458.56
2022-12-17T05:04:03.880Z,102458.84
2022-12-17T05:04:56.985Z,102460.44
2022-12-17T05:05:49.913Z,102461.25
2022-12-17T05:06:42.463Z,102461.25
2022-12-17T05:07:33.455Z,102463.66
2022-12-17T05:08:29.692Z,102463.13
2022-12-17T05:09:20.058Z,102463.38
2022-12-17T05:10:10.697Z,102463.38
2022-12-17T05:11:01.599Z,102474.09
2022-12-17T05:11:54.890Z,102478.66
2022-12-17T05:12:45.591Z,102467.94
2022-12-17T05:13:39.198Z,102467.66
2022-12-17T05:14:29.962Z,102467.66
2022-12-17T05:15:20.631Z,102469.28
2022-12-17T05:16:15.492Z,102469.03
2022-12-17T05:17:06.142Z,102464.72
2022-12-17T05:17:56.649Z,102462.88
2022-12-17T05:18:47.286Z,102468.22
2022-12-17T05:19:38.787Z,102473.56
2022-12-17T05:20:34.838Z,102469.28
2022-12-17T05:21:33.360Z,102471.97
2022-12-17T05:22:25.118Z,102466.59
2022-12-17T05:23:23.974Z,102469.28
2022-12-17T05:24:16.158Z,102470.09
2022-12-17T05:25:06.466Z,102463.94
2022-12-17T05:25:58.286Z,102468.22
2022-12-17T05:26:51.396Z,102469.28
2022-12-17T05:27:41.718Z,102470.09
2022-12-17T05:28:37.384Z,102469.28
2022-12-17T05:29:28.876Z,102464.72
2022-12-17T05:30:19.708Z,102461.25
2022-12-17T05:31:14.561Z,102464.72
2022-12-17T05:32:06.867Z,102462.31
2022-12-17T05:32:57.364Z,102463.13
2022-12-17T05:33:54.746Z,102466.06
2022-12-17T05:34:46.876Z,102473.03
2022-12-17T05:35:45.050Z,102466.06
2022-12-17T05:36:35.928Z,102466.88
2022-12-17T05:37:27.344Z,102465.00
2022-12-17T05:38:28.675Z,102472.78
2022-12-17T05:39:19.255Z,102467.41
2022-12-17T05:40:18.046Z,102468.47
2022-12-17T05:41:08.781Z,102468.47
2022-12-17T05:41:59.630Z,102468.47
2022-12-17T05:42:52.908Z,102460.69
2022-12-17T05:43:43.424Z,102465.81
2022-12-17T05:44:34.867Z,102456.16
2022-12-17T05:45:25.542Z,102463.38
2022-12-17T05:46:21.868Z,102459.91
2022-12-17T05:47:14.511Z,102461.50
2022-12-17T05:48:05.219Z,102463.13
2022-12-17T05:48:57.316Z,102471.41
2022-12-17T05:49:47.091Z,102468.75
2022-12-17T05:50:36.948Z,102465.81
2022-12-17T05:51:27.843Z,102461.50
2022-12-17T05:52:18.007Z,102462.31
2022-12-17T05:53:07.867Z,102462.31
2022-12-17T05:53:57.663Z,102460.44
2022-12-17T05:54:47.550Z,102456.97
2022-12-17T05:55:37.934Z,102460.97
2022-12-17T05:56:28.023Z,102457.47
2022-12-17T05:57:18.206Z,102459.91
2022-12-17T05:58:08.120Z,102466.31
2022-12-17T05:58:58.386Z,102462.84
2022-12-17T05:59:48.176Z,102460.44
2022-12-17T06:00:37.982Z,102466.06
2022-12-17T06:01:27.950Z,102465.50
2022-12-17T06:02:18.047Z,102470.06
2022-12-17T06:03:16.006Z,102472.75
2022-12-17T06:04:06.333Z,102475.41
2022-12-17T06:05:01.832Z,102476.22
2022-12-17T06:05:52.384Z,102478.91
2022-12-17T06:06:42.301Z,102477.84
2022-12-17T06:07:32.121Z,102481.59
2022-12-17T06:08:28.144Z,102484.25
2022-12-17T06:09:18.187Z,102477.03
2022-12-17T06:10:08.177Z,102481.59
2022-12-17T06:10:58.115Z,102477.28
2022-12-17T06:11:48.279Z,102470.31
2022-12-17T06:12:38.103Z,102469.25
2022-12-17T06:13:28.277Z,102466.84
2022-12-17T06:14:18.200Z,102476.75
2022-12-17T06:15:08.121Z,102471.38
2022-12-17T06:15:57.981Z,102473.25
2022-12-17T06:16:47.899Z,102474.06
2022-12-17T06:17:38.327Z,102466.84
2022-12-17T06:18:28.108Z,102466.03
2022-12-17T06:19:18.036Z,102471.38
2022-12-17T06:20:07.907Z,102474.06
2022-12-17T06:20:57.737Z,102469.78
2022-12-17T06:21:47.506Z,102468.97
2022-12-17T06:22:37.257Z,102471.38
2022-12-17T06:23:43.837Z,102474.31
2022-12-17T06:24:33.825Z,102471.09
2022-12-17T06:25:24.147Z,102467.59
2022-12-17T06:26:15.732Z,102468.41
2022-12-17T06:27:05.652Z,102463.06
2022-12-17T06:27:55.517Z,102471.34
2022-12-17T06:28:45.405Z,102474.03
2022-12-17T06:29:35.401Z,102466.78
2022-12-17T06:30:25.968Z,102475.09
2022-12-17T06:32:43.555Z,102470.50
2022-12-17T06:33:33.998Z,102480.41
2022-12-17T06:34:24.619Z,102473.19
2022-12-17T06:35:16.852Z,102474.00
2022-12-17T06:36:07.023Z,102472.13
2022-12-17T06:36:57.074Z,102473.47
2022-12-17T06:37:54.726Z,102471.59
2022-12-17T06:38:44.721Z,102474.28
2022-12-17T06:39:34.556Z,102472.66
2022-12-17T06:40:26.739Z,102480.69
2022-12-17T06:41:36.888Z,102478.81
2022-12-17T06:42:26.995Z,102478.03
2022-12-17T06:43:17.377Z,102478.81
2022-12-17T06:44:26.090Z,102477.22
2022-12-17T06:45:15.883Z,102484.19
2022-12-17T06:46:05.680Z,102478.81
2022-12-17T06:47:23.156Z,102493.03
2022-12-17T06:48:25.932Z,102479.09
2022-12-17T06:49:16.046Z,102487.13
2022-12-17T06:50:05.788Z,102487.13
2022-12-17T06:50:56.377Z,102491.91
2022-12-17T06:51:46.454Z,102492.72
2022-12-17T06:52:36.262Z,102498.09
2022-12-17T06:53:26.553Z,102486.31
2022-12-17T06:54:16.571Z,102493.28
2022-12-17T06:55:06.409Z,102488.72
2022-12-17T06:55:56.122Z,102488.44
2022-12-17T06:56:46.482Z,102488.44
2022-12-17T06:58:44.309Z,102493.78
2022-12-17T06:59:34.092Z,102494.91
2022-12-17T07:00:25.276Z,102504.78
2022-12-17T07:01:15.260Z,102498.63
2022-12-17T07:02:05.571Z,102500.25
2022-12-17T07:02:55.506Z,102508.00
2022-12-17T07:03:45.360Z,102508.00
2022-12-17T07:04:35.287Z,102508.81
2022-12-17T07:05:26.881Z,102504.50
2022-12-17T07:06:20.245Z,102508.00
2022-12-17T07:07:10.098Z,102508.81
2022-12-17T07:08:00.006Z,102506.94
2022-12-17T07:08:50.004Z,102516.56
2022-12-17T07:09:40.337Z,102513.09
2022-12-17T07:10:30.280Z,102518.69
2022-12-17T07:11:20.894Z,102517.63
2022-12-17T07:12:10.828Z,102513.34
2022-12-17T07:13:00.636Z,102511.47
2022-12-17T07:13:50.686Z,102513.34
2022-12-17T07:14:40.675Z,102518.69
2022-12-17T07:15:31.035Z,102525.66
2022-12-17T07:16:21.005Z,102524.59
2022-12-17T07:17:10.905Z,102528.09
2022-12-17T07:18:00.696Z,102523.56
2022-12-17T07:18:50.571Z,102519.81
2022-12-17T07:19:42.316Z,102530.53
2022-12-17T07:20:32.181Z,102535.63
2022-12-17T07:21:22.120Z,102529.47
2022-12-17T07:22:11.953Z,102532.13
2022-12-17T07:23:01.784Z,102531.88
2022-12-17T07:23:52.393Z,102524.66
2022-12-17T07:24:42.267Z,102530.00
2022-12-17T07:25:32.450Z,102528.94
2022-12-17T07:26:22.532Z,102530.25
2022-12-17T07:27:12.969Z,102529.19
2022-12-17T07:28:11.279Z,102531.88
2022-12-17T07:29:01.112Z,102535.63
2022-12-17T07:29:51.348Z,102535.88
2022-12-17T07:30:41.191Z,102536.94
2022-12-17T07:31:31.078Z,102538.25
2022-12-17T07:32:21.507Z,102539.88
2022-12-17T07:33:25.360Z,102540.94
2022-12-17T07:34:15.104Z,102542.28
2022-12-17T07:35:05.129Z,102546.84
2022-12-17T07:35:55.274Z,102540.41
2022-12-17T07:36:45.157Z,102543.91
2022-12-17T07:37:35.050Z,102548.16
2022-12-17T07:38:25.022Z,102542.81
2022-12-17T07:39:15.099Z,102548.97
2022-12-17T07:40:05.016Z,102546.28
2022-12-17T07:40:54.834Z,102554.06
2022-12-17T07:41:44.976Z,102551.13
2022-12-17T07:42:34.829Z,102553.81
2022-12-17T07:43:32.498Z,102560.78
2022-12-17T07:44:22.508Z,102557.03
2022-12-17T07:45:12.450Z,102558.66
2022-12-17T07:46:22.331Z,102555.97
2022-12-17T07:47:12.260Z,102561.34
2022-12-17T07:48:11.598Z,102565.06
2022-12-17T07:49:01.648Z,102562.41
2022-12-17T07:49:51.824Z,102566.69
2022-12-17T07:50:41.825Z,102559.72
2022-12-17T07:51:31.954Z,102559.72
2022-12-17T07:52:22.166Z,102569.38
2022-12-17T07:53:21.553Z,102569.38
2022-12-17T07:54:11.818Z,102565.63
2022-12-17T07:55:01.896Z,102563.75
2022-12-17T07:55:51.933Z,102563.50
2022-12-17T07:56:42.110Z,102561.63
2022-12-17T07:57:33.076Z,102563.50
2022-12-17T07:58:27.747Z,102559.50
2022-12-17T07:59:17.694Z,102568.59
2022-12-17T08:00:07.903Z,102563.25
2022-12-17T08:00:58.096Z,102566.19
2022-12-17T08:01:48.130Z,102566.44
2022-12-17T08:02:38.357Z,102571.53
2022-12-17T08:03:28.770Z,102568.31
2022-12-17T08:04:19.055Z,102570.44
2022-12-17T08:05:09.035Z,102575.78
2022-12-17T08:05:58.851Z,102569.06
2022-12-17T08:06:49.224Z,102577.91
2022-12-17T08:07:39.483Z,102573.38
2022-12-17T08:08:31.918Z,102575.50
2022-12-17T08:09:22.176Z,102573.06
2022-12-17T08:10:12.419Z,102573.88
2022-12-17T08:11:02.351Z,102580.28
2022-12-17T08:11:52.395Z,102576.81
2022-12-17T08:12:42.669Z,102584.84
2022-12-17T08:13:32.614Z,102585.94
2022-12-17T08:14:22.973Z,102587.50
2022-12-17T08:15:13.100Z,102586.47
2022-12-17T08:16:04.363Z,102595.03
2022-12-17T08:16:54.095Z,102585.94
2022-12-17T08:17:44.382Z,102599.34
2022-12-17T08:18:34.666Z,102595.59
2022-12-17T08:19:32.601Z,102601.50
2022-12-17T08:20:23.391Z,102597.75
2022-12-17T08:21:13.241Z,102603.94
2022-12-17T08:22:03.460Z,102602.59
2022-12-17T08:22:53.612Z,102608.78
2022-12-17T08:23:43.457Z,102605.84
2022-12-17T08:24:33.834Z,102599.44
2022-12-17T08:25:24.429Z,102607.47
2022-12-17T08:26:14.509Z,102605.84
2022-12-17T08:27:04.494Z,102606.09
2022-12-17T08:27:54.525Z,102603.16
2022-12-17T08:28:51.661Z,102607.72
2022-12-17T08:29:43.202Z,102598.88
2022-12-17T08:30:33.225Z,102596.19
2022-12-17T08:31:23.710Z,102595.13
2022-12-17T08:32:13.830Z,102599.44
2022-12-17T08:33:03.953Z,102595.94
2022-12-17T08:33:54.056Z,102593.50
2022-12-17T08:34:44.156Z,102601.81
2022-12-17T08:35:34.384Z,102595.63
2022-12-17T08:36:24.069Z,102599.38
2022-12-17T08:37:14.235Z,102605.81
2022-12-17T08:38:04.209Z,102603.94
2022-12-17T08:38:54.247Z,102607.41
2022-12-17T08:39:44.261Z,102603.38
2022-12-17T08:40:37.077Z,102619.69
2022-12-17T08:41:29.628Z,102609.78
2022-12-17T08:42:22.827Z,102605.00
2022-12-17T08:43:16.613Z,102613.84
2022-12-17T08:44:16.802Z,102618.69
2022-12-17T08:45:09.654Z,102620.56
2022-12-17T08:46:04.952Z,102610.66
2022-12-17T08:46:55.133Z,102605.03
2022-12-17T08:47:44.987Z,102615.75
2022-12-17T08:48:35.283Z,102607.72
2022-12-17T08:49:25.131Z,102615.75
2022-12-17T08:50:14.868Z,102615.75
2022-12-17T08:51:04.642Z,102611.47
2022-12-17T08:51:54.408Z,102615.50
2022-12-17T08:52:44.200Z,102610.94
2022-12-17T08:53:35.216Z,102616.03
2022-12-17T08:54:25.225Z,102620.34
2022-12-17T08:55:14.929Z,102616.59
2022-12-17T08:56:05.497Z,102622.47
2022-12-17T08:56:55.165Z,102614.44
2022-12-17T08:57:47.439Z,102617.41
2022-12-17T08:58:37.185Z,102620.88
2022-12-17T08:59:27.655Z,102614.72
2022-12-17T09:00:18.446Z,102607.47
2022-12-17T09:01:08.195Z,102614.44
2022-12-17T09:01:58.378Z,102603.72
2022-12-17T09:02:48.238Z,102610.16
2022-12-17T09:03:38.772Z,102602.13
2022-12-17T09:04:29.436Z,102596.75
2022-12-17T09:05:19.400Z,102604.53
2022-12-17T09:06:11.418Z,102609.09
2022-12-17T09:07:01.615Z,102606.16
2022-12-17T09:07:51.472Z,102616.34
2022-12-17T09:08:41.343Z,102621.72
2022-12-17T09:09:31.430Z,102617.16
2022-12-17T09:10:22.279Z,102618.78
2022-12-17T09:11:12.282Z,102622.81
2022-12-17T09:12:02.229Z,102623.63
2022-12-17T09:12:58.562Z,102621.50
2022-12-17T09:14:59.312Z,102622.31
2022-12-17T09:15:49.189Z,102618.00
2022-12-17T09:16:39.873Z,102617.22
2022-12-17T09:17:29.932Z,102618.00
2022-12-17T09:18:19.647Z,102619.06
2022-12-17T09:19:09.828Z,102622.81
2022-12-17T09:20:00.479Z,102618.28
2022-12-17T09:20:50.649Z,102616.66
2022-12-17T09:21:41.097Z,102621.75
2022-12-17T09:22:32.202Z,102616.66
2022-12-17T09:23:22.273Z,102624.94
2022-12-17T09:24:25.978Z,102622.53
2022-12-17T09:25:16.873Z,102619.03
2022-12-17T09:26:16.318Z,102625.72
2022-12-17T09:27:06.079Z,102628.66
2022-12-17T09:27:56.114Z,102625.97
2022-12-17T09:28:46.415Z,102639.34
2022-12-17T09:29:36.537Z,102644.47
2022-12-17T09:30:27.712Z,102647.94
2022-12-17T09:31:20.758Z,102652.25
2022-12-17T09:32:13.952Z,102654.66
2022-12-17T09:33:03.781Z,102659.22
2022-12-17T09:33:55.412Z,102656.28
2022-12-17T09:34:45.524Z,102649.31
2022-12-17T09:35:35.480Z,102654.66
2022-12-17T09:36:51.044Z,102657.34
2022-12-17T09:37:41.641Z,102661.09
2022-12-17T09:38:35.911Z,102661.09
2022-12-17T09:39:25.738Z,102668.31
2022-12-17T09:40:15.860Z,102661.34
2022-12-17T09:41:09.257Z,102660.53
2022-12-17T09:42:18.480Z,102668.56
2022-12-17T09:43:21.632Z,102668.56
2022-12-17T09:44:34.910Z,102661.34
2022-12-17T09:45:39.369Z,102662.16
2022-12-17T09:46:55.687Z,102658.41
2022-12-17T09:48:15.301Z,102656.53
2022-12-17T09:49:20.239Z,102657.34
2022-12-17T09:50:15.393Z,102653.59
2022-12-17T09:51:16.463Z,102654.41
2022-12-17T09:52:06.851Z,102656.28
2022-12-17T09:52:59.619Z,102657.09
2022-12-17T09:53:58.066Z,102663.81
2022-12-17T09:55:21.618Z,102657.91
2022-12-17T09:56:54.486Z,102655.78
2022-12-17T09:57:51.536Z,102665.44
2022-12-17T09:58:44.221Z,102668.91
2022-12-17T09:59:44.546Z,102669.72
2022-12-17T10:00:37.718Z,102671.34
2022-12-17T10:01:37.684Z,102672.97
2022-12-17T10:02:36.049Z,102669.47
2022-12-17T10:03:35.591Z,102669.47
2022-12-17T10:04:34.738Z,102664.13
2022-12-17T10:05:31.499Z,102665.97
2022-12-17T10:06:31.810Z,102668.66
2022-12-17T10:07:22.598Z,102666.78
2022-12-17T10:08:12.971Z,102670.84
2022-12-17T10:09:03.613Z,102656.63
2022-12-17T10:09:55.565Z,102660.94
2022-12-17T10:10:51.605Z,102661.72
2022-12-17T10:11:42.934Z,102656.13
2022-12-17T10:12:37.127Z,102653.16
2022-12-17T10:13:38.758Z,102652.34